createdAt,value
2023-05-16T00:01:50.698Z,5.60
2023-05-16T00:04:19.148Z,5.50
2023-05-16T00:06:47.573Z,5.00
2023-05-16T00:09:15.924Z,5.20
2023-05-16T00:11:44.984Z,5.40
2023-05-16T00:14:13.598Z,5.50
2023-05-16T00:16:42.313Z,5.00
2023-05-16T00:19:11.508Z,5.00
2023-05-16T00:21:40.492Z,5.50
2023-05-16T00:24:09.200Z,5.10
2023-05-16T00:26:37.605Z,5.20
2023-05-16T00:29:07.056Z,5.60
2023-05-16T00:31:35.854Z,5.30
2023-05-16T00:34:04.328Z,5.40
2023-05-16T00:36:33.111Z,5.00
2023-05-16T00:39:01.519Z,5.20
2023-05-16T00:41:30.015Z,5.00
2023-05-16T00:43:58.336Z,4.40
2023-05-16T00:46:26.732Z,4.70
2023-05-16T00:48:55.194Z,4.10
2023-05-16T00:51:23.672Z,4.20
2023-05-16T00:53:52.164Z,4.10
2023-05-16T00:56:21.689Z,4.50
2023-05-16T00:58:50.312Z,4.70
2023-05-16T01:01:23.856Z,5.50
2023-05-16T01:03:54.563Z,4.20
2023-05-16T01:06:23.133Z,4.70
2023-05-16T01:08:51.470Z,4.80
2023-05-16T01:11:26.529Z,4.50
2023-05-16T01:14:00.839Z,5.00
2023-05-16T01:16:37.923Z,5.10
2023-05-16T01:19:55.741Z,5.20
2023-05-16T01:22:33.544Z,5.60
2023-05-16T01:25:28.432Z,5.30
2023-05-16T01:27:57.868Z,6.00
2023-05-16T01:30:26.257Z,5.30
2023-05-16T01:32:54.831Z,5.30
2023-05-16T01:35:24.353Z,4.10
2023-05-16T01:38:07.864Z,4.40
2023-05-16T01:40:57.180Z,4.10
2023-05-16T01:43:35.780Z,4.20
2023-05-16T01:46:16.376Z,4.40
2023-05-16T01:49:02.323Z,4.90
2023-05-16T01:51:35.899Z,4.60
2023-05-16T01:54:07.769Z,4.40
2023-05-16T01:56:38.083Z,4.90
2023-05-16T01:59:08.539Z,4.40
2023-05-16T02:01:36.920Z,4.40
2023-05-16T02:04:06.401Z,5.00
2023-05-16T02:09:05.067Z,4.70
2023-05-16T02:11:33.381Z,5.30
2023-05-16T02:14:01.739Z,5.00
2023-05-16T02:16:31.793Z,5.30
2023-05-16T02:19:00.201Z,5.00
2023-05-16T02:21:28.547Z,5.20
2023-05-16T02:23:56.889Z,5.20
2023-05-16T02:26:25.206Z,5.20
2023-05-16T02:28:54.462Z,5.30
2023-05-16T02:31:30.908Z,5.50
2023-05-16T02:33:59.950Z,5.30
2023-05-16T02:36:28.782Z,5.40
2023-05-16T02:38:57.108Z,6.40
2023-05-16T02:41:26.020Z,6.00
2023-05-16T02:43:54.370Z,5.80
2023-05-16T02:46:31.374Z,5.20
2023-05-16T02:49:00.202Z,5.40
2023-05-16T02:51:29.170Z,5.20
2023-05-16T02:53:59.751Z,4.80
2023-05-16T02:58:56.814Z,5.00
2023-05-16T03:01:25.309Z,5.20
2023-05-16T03:03:53.938Z,5.60
2023-05-16T03:06:22.480Z,5.40
2023-05-16T03:08:50.893Z,5.20
2023-05-16T03:11:24.281Z,5.50
2023-05-16T03:13:52.790Z,4.80
2023-05-16T03:16:21.846Z,5.70
2023-05-16T03:18:50.454Z,5.20
2023-05-16T03:21:18.844Z,4.90
2023-05-16T03:23:47.117Z,5.10
2023-05-16T03:26:15.498Z,5.00
2023-05-16T03:28:43.778Z,4.80
2023-05-16T03:31:12.172Z,4.60
2023-05-16T03:33:40.683Z,4.80
2023-05-16T03:36:09.948Z,5.00
2023-05-16T03:38:38.749Z,5.30
2023-05-16T03:41:07.075Z,5.00
2023-05-16T03:43:35.458Z,5.10
2023-05-16T03:46:04.322Z,5.10
2023-05-16T03:48:32.819Z,4.90
2023-05-16T03:51:01.161Z,5.10
2023-05-16T03:53:29.514Z,5.30
2023-05-16T03:55:57.887Z,4.80
2023-05-16T03:58:26.262Z,5.10
2023-05-16T04:00:54.587Z,5.10
2023-05-16T04:03:28.642Z,4.50
2023-05-16T04:05:57.882Z,5.30
2023-05-16T04:08:26.407Z,5.20
2023-05-16T04:10:54.811Z,6.40
2023-05-16T04:13:23.324Z,7.00
2023-05-16T04:15:51.914Z,6.50
2023-05-16T04:18:22.688Z,6.70
2023-05-16T04:20:51.001Z,6.10
2023-05-16T04:23:19.385Z,6.90
2023-05-16T04:25:48.019Z,6.10
2023-05-16T04:28:16.624Z,6.90
2023-05-16T04:30:44.987Z,6.10
2023-05-16T04:33:13.423Z,6.00
2023-05-16T04:35:41.807Z,6.10
2023-05-16T04:38:10.271Z,5.60
2023-05-16T04:40:38.902Z,7.30
2023-05-16T04:43:07.518Z,6.50
2023-05-16T04:45:37.568Z,6.90
2023-05-16T04:48:06.720Z,6.60
2023-05-16T04:50:35.170Z,6.00
2023-05-16T04:53:03.590Z,6.00
2023-05-16T04:55:32.211Z,6.40
2023-05-16T04:58:00.505Z,5.80
2023-05-16T05:00:29.063Z,7.70
2023-05-16T05:02:57.819Z,6.40
2023-05-16T05:05:26.368Z,6.90
2023-05-16T05:07:57.745Z,6.60
2023-05-16T05:10:27.875Z,6.60
2023-05-16T05:12:56.180Z,6.60
2023-05-16T05:15:24.831Z,6.20
2023-05-16T05:17:53.746Z,6.80
2023-05-16T05:20:22.312Z,6.30
2023-05-16T05:22:50.684Z,5.70
2023-05-16T05:25:19.031Z,6.70
2023-05-16T05:27:47.425Z,6.90
2023-05-16T05:30:16.400Z,6.80
2023-05-16T05:32:44.781Z,6.90
2023-05-16T05:35:13.181Z,6.90
2023-05-16T05:37:41.528Z,8.10
2023-05-16T05:40:10.225Z,8.00
2023-05-16T05:42:38.681Z,7.40
2023-05-16T05:45:07.868Z,8.20
2023-05-16T05:47:36.441Z,7.30
2023-05-16T05:50:05.856Z,8.60
2023-05-16T05:52:34.218Z,7.40
2023-05-16T05:55:02.770Z,8.10
2023-05-16T05:57:31.116Z,9.10
2023-05-16T05:59:59.423Z,9.20
2023-05-16T06:02:28.058Z,9.90
2023-05-16T06:04:56.768Z,9.90
2023-05-16T06:07:26.153Z,9.70
2023-05-16T06:09:54.480Z,10.40
2023-05-16T06:12:22.848Z,11.10
2023-05-16T06:14:51.163Z,14.00
2023-05-16T06:17:19.524Z,13.00
2023-05-16T06:19:47.963Z,15.00
2023-05-16T06:22:16.297Z,13.50
2023-05-16T06:24:44.778Z,13.80
2023-05-16T06:27:13.119Z,13.90
2023-05-16T06:29:41.483Z,13.30
2023-05-16T06:32:12.431Z,13.40
2023-05-16T06:34:41.599Z,12.60
2023-05-16T06:37:09.977Z,14.00
2023-05-16T06:39:38.282Z,13.10
2023-05-16T06:42:07.228Z,12.60
2023-05-16T06:44:35.618Z,12.70
2023-05-16T06:47:04.244Z,10.90
2023-05-16T06:49:33.384Z,8.40
2023-05-16T06:52:03.137Z,6.30
2023-05-16T06:54:32.415Z,7.50
2023-05-16T06:57:00.972Z,7.40
2023-05-16T06:59:29.342Z,6.90
2023-05-16T07:01:57.688Z,7.10
2023-05-16T07:04:26.105Z,7.60
2023-05-16T07:06:54.698Z,9.30
2023-05-16T07:09:23.167Z,11.00
2023-05-16T07:11:51.500Z,11.50
2023-05-16T07:14:19.861Z,12.40
2023-05-16T07:16:48.346Z,13.00
2023-05-16T07:19:16.907Z,13.60
2023-05-16T07:21:45.450Z,12.20
2023-05-16T07:24:13.841Z,13.20
2023-05-16T07:26:42.261Z,12.60
2023-05-16T07:29:10.936Z,12.30
2023-05-16T07:31:39.472Z,12.40
2023-05-16T07:34:08.011Z,12.70
2023-05-16T07:36:36.553Z,13.40
2023-05-16T07:39:05.180Z,12.70
2023-05-16T07:41:33.698Z,13.20
2023-05-16T07:44:02.115Z,12.20
2023-05-16T07:46:30.944Z,12.30
2023-05-16T07:48:59.559Z,12.10
2023-05-16T07:51:29.082Z,12.10
2023-05-16T07:53:57.830Z,11.70
2023-05-16T07:56:26.329Z,11.60
2023-05-16T07:58:55.267Z,12.90
2023-05-16T08:01:23.823Z,12.70
2023-05-16T08:03:53.795Z,12.40
2023-05-16T08:06:22.356Z,11.90
2023-05-16T08:08:50.833Z,11.50
2023-05-16T08:11:22.760Z,11.90
2023-05-16T08:13:51.492Z,11.30
2023-05-16T08:16:20.094Z,11.90
2023-05-16T08:18:48.693Z,10.90
2023-05-16T08:21:17.251Z,10.00
2023-05-16T08:23:45.764Z,12.60
2023-05-16T08:26:14.225Z,10.60
2023-05-16T08:28:44.492Z,13.40
2023-05-16T08:31:12.976Z,13.10
2023-05-16T08:33:41.464Z,11.50
2023-05-16T08:36:10.317Z,11.40
2023-05-16T08:38:38.754Z,10.40
2023-05-16T08:41:07.546Z,10.70
2023-05-16T08:43:36.930Z,10.10
2023-05-16T08:46:07.837Z,10.40
2023-05-16T08:48:37.460Z,10.60
2023-05-16T08:51:08.138Z,10.20
2023-05-16T08:56:16.386Z,10.20
2023-05-16T08:58:45.909Z,9.00
2023-05-16T09:01:14.891Z,10.00
2023-05-16T09:03:44.405Z,10.20
2023-05-16T09:06:13.139Z,11.10
2023-05-16T09:08:42.168Z,10.10
2023-05-16T09:11:10.754Z,10.50
2023-05-16T09:13:39.963Z,10.90
2023-05-16T09:16:21.778Z,10.00
2023-05-16T09:18:57.365Z,11.00
2023-05-16T09:21:34.902Z,15.80
2023-05-16T09:24:08.427Z,12.30
2023-05-16T09:26:38.883Z,13.30
2023-05-16T09:29:13.832Z,13.00
2023-05-16T09:31:42.972Z,11.30
2023-05-16T09:34:13.002Z,10.50
2023-05-16T09:36:43.621Z,10.80
2023-05-16T09:39:15.812Z,10.70
2023-05-16T09:41:44.334Z,9.50
2023-05-16T09:44:13.136Z,9.00
2023-05-16T09:46:41.763Z,10.30
2023-05-16T09:49:13.119Z,10.60
2023-05-16T09:51:42.325Z,9.90
2023-05-16T09:54:11.119Z,11.00
2023-05-16T09:56:50.855Z,10.40
2023-05-16T09:59:19.169Z,10.40
2023-05-16T10:01:49.200Z,10.20
2023-05-16T10:04:17.858Z,10.80
2023-05-16T10:06:47.884Z,10.10
2023-05-16T10:09:17.677Z,9.80
2023-05-16T10:11:48.298Z,9.60
2023-05-16T10:14:19.221Z,8.80
2023-05-16T10:16:51.572Z,9.70
2023-05-16T10:19:24.663Z,9.60
2023-05-16T10:22:00.869Z,9.30
2023-05-16T10:24:44.087Z,9.00
2023-05-16T10:27:13.216Z,9.20
2023-05-16T10:29:53.517Z,8.60
2023-05-16T10:32:25.567Z,9.20
2023-05-16T10:34:56.481Z,8.30
2023-05-16T10:37:25.685Z,8.90
2023-05-16T10:39:54.871Z,9.10
2023-05-16T10:42:23.354Z,9.40
2023-05-16T10:45:04.808Z,9.00
2023-05-16T10:47:34.311Z,8.30
2023-05-16T10:50:03.285Z,9.90
2023-05-16T10:52:37.651Z,9.40
2023-05-16T10:55:06.213Z,9.60
2023-05-16T10:57:36.795Z,8.10
2023-05-16T11:00:08.313Z,8.50
2023-05-16T11:02:41.820Z,7.90
2023-05-16T11:05:19.266Z,8.20
2023-05-16T11:08:06.015Z,8.30
2023-05-16T11:10:34.410Z,7.70
2023-05-16T11:13:07.554Z,7.00
2023-05-16T11:15:36.193Z,7.80
2023-05-16T11:18:10.788Z,7.10
2023-05-16T11:20:40.457Z,7.70
2023-05-16T11:23:25.371Z,7.20
2023-05-16T11:25:57.023Z,7.40
2023-05-16T11:28:27.423Z,7.60
2023-05-16T11:31:00.191Z,7.60
2023-05-16T11:33:34.564Z,8.20
2023-05-16T11:36:15.977Z,7.70
2023-05-16T11:38:45.001Z,7.50
2023-05-16T11:41:15.659Z,7.00
2023-05-16T11:43:46.051Z,6.30
2023-05-16T11:46:16.521Z,7.10
2023-05-16T11:51:19.048Z,6.40
2023-05-16T11:53:50.062Z,6.10
2023-05-16T11:56:18.883Z,6.10
2023-05-16T11:58:47.831Z,6.10
2023-05-16T12:01:16.320Z,6.60
2023-05-16T12:03:45.097Z,6.20
2023-05-16T12:06:15.743Z,6.80
2023-05-16T12:08:51.676Z,7.80
2023-05-16T12:11:21.830Z,7.50
2023-05-16T12:13:50.683Z,7.10
2023-05-16T12:16:19.382Z,7.80
2023-05-16T12:18:48.364Z,7.80
2023-05-16T12:21:17.550Z,7.70
2023-05-16T12:23:46.089Z,7.90
2023-05-16T12:26:14.723Z,5.50
2023-05-16T12:28:44.735Z,5.60
2023-05-16T12:31:31.149Z,6.70
2023-05-16T12:34:00.897Z,6.00
2023-05-16T12:36:34.994Z,6.10
2023-05-16T12:39:04.440Z,5.70
2023-05-16T12:41:32.937Z,5.30
2023-05-16T12:44:12.649Z,5.30
2023-05-16T12:46:42.512Z,5.50
2023-05-16T12:49:11.233Z,5.30
2023-05-16T12:51:40.073Z,4.70
2023-05-16T12:54:11.734Z,7.80
2023-05-16T12:56:41.553Z,5.10
2023-05-16T12:59:10.388Z,4.30
2023-05-16T13:01:40.983Z,4.60
2023-05-16T13:04:09.896Z,4.50
2023-05-16T13:06:56.751Z,4.50
2023-05-16T13:09:29.073Z,4.80
2023-05-16T13:11:59.873Z,4.40
2023-05-16T13:14:28.592Z,4.40
2023-05-16T13:16:57.201Z,4.00
2023-05-16T13:19:25.973Z,4.10
2023-05-16T13:21:54.577Z,3.90
2023-05-16T13:24:23.015Z,4.00
2023-05-16T13:26:51.339Z,4.30
2023-05-16T13:29:19.885Z,4.40
2023-05-16T13:31:48.477Z,4.20
2023-05-16T13:34:16.974Z,4.10
2023-05-16T13:36:53.798Z,3.60
2023-05-16T13:39:23.502Z,3.90
2023-05-16T13:41:52.559Z,3.90
2023-05-16T13:44:22.625Z,4.00
2023-05-16T13:46:51.203Z,3.60
2023-05-16T13:49:19.628Z,3.60
2023-05-16T13:51:48.155Z,3.60
2023-05-16T13:54:17.383Z,4.50
2023-05-16T13:56:46.268Z,4.30
2023-05-16T13:59:18.501Z,3.60
2023-05-16T14:01:56.541Z,4.20
2023-05-16T14:04:26.499Z,4.50
2023-05-16T14:06:56.495Z,4.50
2023-05-16T14:09:24.946Z,4.00
2023-05-16T14:11:53.369Z,3.60
2023-05-16T14:14:21.707Z,4.40
2023-05-16T14:16:50.213Z,5.00
2023-05-16T14:19:19.556Z,4.20
2023-05-16T14:21:48.211Z,5.00
2023-05-16T14:24:16.678Z,4.30
2023-05-16T14:26:45.148Z,4.30
2023-05-16T14:29:13.741Z,4.50
2023-05-16T14:31:42.396Z,4.30
2023-05-16T14:34:10.889Z,4.20
2023-05-16T14:36:39.310Z,4.00
2023-05-16T14:39:08.634Z,4.30
2023-05-16T14:41:37.559Z,4.60
2023-05-16T14:44:06.209Z,5.00
2023-05-16T14:46:34.728Z,4.00
2023-05-16T14:49:03.689Z,4.40
2023-05-16T14:51:32.449Z,4.40
2023-05-16T14:54:01.074Z,4.30
2023-05-16T14:56:29.603Z,4.80
2023-05-16T14:58:58.478Z,4.30
2023-05-16T15:01:27.237Z,4.90
2023-05-16T15:03:56.731Z,5.60
2023-05-16T15:06:25.426Z,5.70
2023-05-16T15:08:53.887Z,5.50
2023-05-16T15:11:22.342Z,6.30
2023-05-16T15:13:50.700Z,4.90
2023-05-16T15:16:19.193Z,7.60
2023-05-16T15:18:47.748Z,4.80
2023-05-16T15:21:16.459Z,4.60
2023-05-16T15:23:45.338Z,5.30
2023-05-16T15:26:13.750Z,5.60
2023-05-16T15:28:42.136Z,4.70
2023-05-16T15:31:10.635Z,4.30
2023-05-16T15:33:39.163Z,5.40
2023-05-16T15:36:08.073Z,4.90
2023-05-16T15:38:36.647Z,5.00
2023-05-16T15:43:42.532Z,4.60
2023-05-16T15:46:11.546Z,4.90
2023-05-16T15:48:42.987Z,4.80
2023-05-16T15:51:15.925Z,4.90
2023-05-16T15:53:45.061Z,5.90
2023-05-16T15:56:13.395Z,6.10
2023-05-16T15:58:41.933Z,5.20
2023-05-16T16:01:10.405Z,5.20
2023-05-16T16:03:38.939Z,5.10
2023-05-16T16:06:07.570Z,5.70
2023-05-16T16:08:38.483Z,5.30
2023-05-16T16:11:06.851Z,6.20
2023-05-16T16:13:35.308Z,5.10
2023-05-16T16:16:03.770Z,5.70
2023-05-16T16:18:32.558Z,5.50
2023-05-16T16:21:01.353Z,5.70
2023-05-16T16:23:31.797Z,5.90
2023-05-16T16:28:29.097Z,5.20
2023-05-16T16:30:57.556Z,5.70
2023-05-16T16:33:26.140Z,5.50
2023-05-16T16:35:57.697Z,6.20
2023-05-16T16:38:26.209Z,5.60
2023-05-16T16:40:54.601Z,5.00
2023-05-16T16:43:23.215Z,4.40
2023-05-16T16:45:51.658Z,4.40
2023-05-16T16:48:20.075Z,3.50
2023-05-16T16:50:48.591Z,3.70
2023-05-16T16:53:17.047Z,4.40
2023-05-16T16:55:45.418Z,4.20
2023-05-16T16:58:13.886Z,4.20
2023-05-16T17:00:42.350Z,4.30
2023-05-16T17:03:11.792Z,4.20
2023-05-16T17:05:40.211Z,3.70
2023-05-16T17:08:08.721Z,3.60
2023-05-16T17:10:37.241Z,4.30
2023-05-16T17:13:10.328Z,3.50
2023-05-16T17:15:38.989Z,3.80
2023-05-16T17:18:07.693Z,5.00
2023-05-16T17:20:36.928Z,4.40
2023-05-16T17:23:05.672Z,7.10
2023-05-16T17:25:34.111Z,8.50
2023-05-16T17:28:03.191Z,5.50
2023-05-16T17:30:31.844Z,4.90
2023-05-16T17:33:00.335Z,4.20
2023-05-16T17:35:29.088Z,4.30
2023-05-16T17:37:57.696Z,4.00
2023-05-16T17:40:26.095Z,4.50
2023-05-16T17:42:54.467Z,4.60
2023-05-16T17:45:23.053Z,4.00
2023-05-16T17:47:51.497Z,4.30
2023-05-16T17:50:21.896Z,4.30
2023-05-16T17:52:50.785Z,3.90
2023-05-16T17:55:19.194Z,4.20
2023-05-16T17:57:47.750Z,3.70
2023-05-16T18:00:17.923Z,4.20
2023-05-16T18:02:46.388Z,4.10
2023-05-16T18:05:16.668Z,4.10
2023-05-16T18:07:45.155Z,3.30
2023-05-16T18:10:13.670Z,3.90
2023-05-16T18:12:42.806Z,3.60
2023-05-16T18:15:11.521Z,3.40
2023-05-16T18:17:40.124Z,3.20
2023-05-16T18:20:10.749Z,3.60
2023-05-16T18:22:39.896Z,3.80
2023-05-16T18:25:10.053Z,3.50
2023-05-16T18:27:38.831Z,3.90
2023-05-16T18:30:08.276Z,3.20
2023-05-16T18:32:37.263Z,3.60
2023-05-16T18:35:06.244Z,4.00
2023-05-16T18:37:34.706Z,3.60
2023-05-16T18:40:03.259Z,3.30
2023-05-16T18:42:31.644Z,4.00
2023-05-16T18:45:00.012Z,4.00
2023-05-16T18:47:28.456Z,3.70
2023-05-16T18:49:56.899Z,3.70
2023-05-16T18:52:25.302Z,3.40
2023-05-16T18:54:53.679Z,3.80
2023-05-16T18:57:22.373Z,4.20
2023-05-16T18:59:52.870Z,7.40
2023-05-16T19:02:30.326Z,5.50
2023-05-16T19:07:31.179Z,4.00
2023-05-16T19:10:01.008Z,3.40
2023-05-16T19:12:31.375Z,3.50
2023-05-16T19:14:59.825Z,3.50
2023-05-16T19:17:28.204Z,4.00
2023-05-16T19:19:56.688Z,4.20
2023-05-16T19:22:25.068Z,3.50
2023-05-16T19:24:53.521Z,3.90
2023-05-16T19:27:21.950Z,3.50
2023-05-16T19:29:50.647Z,3.90
2023-05-16T19:32:19.083Z,3.40
2023-05-16T19:34:47.652Z,3.90
2023-05-16T19:37:16.073Z,3.60
2023-05-16T19:39:44.652Z,3.50
2023-05-16T19:42:13.041Z,3.50
2023-05-16T19:44:42.813Z,3.50
2023-05-16T19:47:11.572Z,3.60
2023-05-16T19:49:40.073Z,3.80
2023-05-16T19:52:09.388Z,3.20
2023-05-16T19:54:37.765Z,3.90
2023-05-16T19:57:06.315Z,4.20
2023-05-16T19:59:34.873Z,3.30
2023-05-16T20:02:04.720Z,3.10
2023-05-16T20:04:33.086Z,3.50
2023-05-16T20:07:01.480Z,4.10
2023-05-16T20:09:29.835Z,3.20
2023-05-16T20:11:58.973Z,3.50
2023-05-16T20:14:29.302Z,3.20
2023-05-16T20:16:58.772Z,3.10
2023-05-16T20:19:27.393Z,3.10
2023-05-16T20:21:56.121Z,2.90
2023-05-16T20:24:24.678Z,3.10
2023-05-16T20:26:53.085Z,3.60
2023-05-16T20:29:21.542Z,2.80
2023-05-16T20:31:49.883Z,3.30
2023-05-16T20:34:18.239Z,3.10
2023-05-16T20:36:46.603Z,2.90
2023-05-16T20:39:15.137Z,2.80
2023-05-16T20:41:43.557Z,3.30
2023-05-16T20:44:11.960Z,3.10
2023-05-16T20:46:42.041Z,3.10
2023-05-16T20:49:10.637Z,3.00
2023-05-16T20:51:39.030Z,3.50
2023-05-16T20:54:10.351Z,3.80
2023-05-16T20:56:38.740Z,3.70
2023-05-16T20:59:07.074Z,3.70
2023-05-16T21:01:35.484Z,4.20
2023-05-16T21:04:03.934Z,3.80
2023-05-16T21:06:32.383Z,3.60
2023-05-16T21:09:00.937Z,4.00
2023-05-16T21:11:32.225Z,3.80
2023-05-16T21:14:01.444Z,3.90
2023-05-16T21:16:31.324Z,3.30
2023-05-16T21:19:01.865Z,3.80
2023-05-16T21:21:31.361Z,3.80
2023-05-16T21:23:59.868Z,3.60
2023-05-16T21:26:28.286Z,3.70
2023-05-16T21:28:56.727Z,3.70
2023-05-16T21:31:25.077Z,3.10
2023-05-16T21:33:53.532Z,3.20
2023-05-16T21:36:22.082Z,3.50
2023-05-16T21:38:50.436Z,3.30
2023-05-16T21:41:20.032Z,3.10
2023-05-16T21:43:48.384Z,3.30
2023-05-16T21:46:16.705Z,3.70
2023-05-16T21:48:45.116Z,2.70
2023-05-16T21:51:13.523Z,3.00
2023-05-16T21:53:41.939Z,3.10
2023-05-16T21:56:10.261Z,3.50
2023-05-16T21:58:38.954Z,3.60
2023-05-16T22:01:07.611Z,3.10
2023-05-16T22:03:36.122Z,3.90
2023-05-16T22:06:05.088Z,3.10
2023-05-16T22:08:33.497Z,3.70
2023-05-16T22:11:02.280Z,3.50
2023-05-16T22:13:30.704Z,3.90
2023-05-16T22:16:04.698Z,3.90
2023-05-16T22:18:34.215Z,4.40
2023-05-16T22:21:02.744Z,3.90
2023-05-16T22:23:31.233Z,3.90
2023-05-16T22:25:59.832Z,3.90
2023-05-16T22:28:28.477Z,3.80
2023-05-16T22:30:56.897Z,3.80
2023-05-16T22:33:25.720Z,4.40
2023-05-16T22:35:54.293Z,4.00
2023-05-16T22:38:22.716Z,4.20
2023-05-16T22:40:51.224Z,3.60
2023-05-16T22:43:19.616Z,3.50
2023-05-16T22:45:48.005Z,4.50
2023-05-16T22:48:16.441Z,4.00
2023-05-16T22:50:44.992Z,4.30
2023-05-16T22:53:13.877Z,3.80
2023-05-16T22:55:42.227Z,4.40
2023-05-16T22:58:10.639Z,3.60
2023-05-16T23:00:38.959Z,4.00
2023-05-16T23:03:07.387Z,4.30
2023-05-16T23:05:36.277Z,3.90
2023-05-16T23:08:04.911Z,4.50
2023-05-16T23:10:33.287Z,4.20
2023-05-16T23:13:01.695Z,4.90
2023-05-16T23:15:30.421Z,4.30
2023-05-16T23:17:59.083Z,4.20
2023-05-16T23:20:27.463Z,4.10
2023-05-16T23:22:55.940Z,4.20
2023-05-16T23:25:24.351Z,4.50
2023-05-16T23:27:57.670Z,3.90
2023-05-16T23:30:26.498Z,4.60
2023-05-16T23:32:55.091Z,4.70
2023-05-16T23:35:23.481Z,4.60
2023-05-16T23:37:52.143Z,4.60
2023-05-16T23:40:20.480Z,4.20
2023-05-16T23:42:48.866Z,4.40
2023-05-16T23:45:17.265Z,4.00
2023-05-16T23:47:46.152Z,4.90
2023-05-16T23:50:16.350Z,4.80
2023-05-16T23:52:44.754Z,5.30
2023-05-16T23:55:13.659Z,5.40
2023-05-16T23:57:42.165Z,5.00
